This is the latest recevied weather packets stored in our database for station/object KF7ROW. If no packets are shown the sender has not sent any weather packets the latest 10 day(s).
| Time | Temp. | Humidity | Pressure | Rain* | Wind** | Luminosity | Snow |
|---|---|---|---|---|---|---|---|
| 1777862923 | 12.22° C | 93% | 1014.7 hPa | 0 mm | - | 18 W/m² | - |
| 1777862619 | 12.22° C | 93% | 1014.7 hPa | 0 mm | - | 25 W/m² | - |
| 1777862316 | 12.78° C | 92% | 1014.6 hPa | 0 mm | - | 28 W/m² | - |
| 1777862013 | 12.78° C | 91% | 1014.4 hPa | 0 mm | - | 31 W/m² | - |
| 1777861708 | 13.33° C | 90% | 1014.4 hPa | 0 mm | - | 34 W/m² | - |
| 1777861406 | 13.33° C | 89% | 1014.3 hPa | 0 mm | - | 38 W/m² | - |
| 1777861102 | 13.89° C | 88% | 1014.3 hPa | 0 mm | - | 41 W/m² | - |
| 1777860800 | 13.89° C | 88% | 1014.5 hPa | 0 mm | - | 46 W/m² | - |
| 1777860497 | 14.44° C | 85% | 1014.1 hPa | 0 mm | - | 51 W/m² | - |
| 1777860193 | 15.56° C | 84% | 1014.1 hPa | 0 mm | - | 57 W/m² | - |
| 1777859889 | 16.67° C | 80% | 1013.9 hPa | 0 mm | - | 64 W/m² | - |
| 1777859586 | 16.67° C | 79% | 1013.9 hPa | 0 mm | - | 72 W/m² | - |
| 1777859282 | 16.67° C | 79% | 1013.8 hPa | 0 mm | - | 82 W/m² | - |
| 1777858978 | 16.67° C | 79% | 1013.5 hPa | 0 mm | - | 109 W/m² | - |
| 1777858676 | 17.22° C | 78% | 1013.5 hPa | 0 mm | - | 177 W/m² | - |
| 1777858373 | 17.22° C | 77% | 1013.4 hPa | 0 mm | - | 191 W/m² | - |
| 1777858069 | 18.33° C | 74% | 1013.4 hPa | 0 mm | - | 205 W/m² | - |
| 1777857768 | 18.33° C | 73% | 1013.4 hPa | 0 mm | - | 217 W/m² | - |
| 1777857464 | 18.33° C | 73% | 1013.2 hPa | 0 mm | - | 225 W/m² | - |
| 1777857161 | 19.44° C | 70% | 1013.2 hPa | 0 mm | - | 230 W/m² | - |
| 1777856857 | 18.89° C | 72% | 1013.2 hPa | 0 mm | - | 235 W/m² | - |
| 1777856553 | 19.44° C | 69% | 1013.2 hPa | 0 mm | - | 243 W/m² | - |
| 1777856250 | 20° C | 68% | 1013.2 hPa | 0 mm | - | 252 W/m² | - |
| 1777855947 | 20° C | 69% | 1013.2 hPa | 0 mm | - | 262 W/m² | - |
| 1777855645 | 20° C | 68% | 1013.1 hPa | 0 mm | - | 275 W/m² | - |
* Rain latest hour (hover to see other rain measurements)
** Current wind speed in m/s (hover to see current wind gust speed)